createdAt,value
2022-12-06T00:00:41.906Z,1017.04
2022-12-06T00:05:46.193Z,1016.95
2022-12-06T00:10:43.708Z,1017.01
2022-12-06T00:15:44.864Z,1016.96
2022-12-06T00:20:46.026Z,1016.97
2022-12-06T00:25:47.231Z,1016.93
2022-12-06T00:30:48.434Z,1016.99
2022-12-06T00:35:49.620Z,1016.99
2022-12-06T00:40:50.713Z,1016.91
2022-12-06T00:45:51.980Z,1016.85
2022-12-06T00:50:53.144Z,1016.84
2022-12-06T00:55:54.311Z,1016.84
2022-12-06T01:00:55.540Z,1016.89
2022-12-06T01:05:56.723Z,1016.74
2022-12-06T01:10:57.894Z,1016.86
2022-12-06T01:15:59.098Z,1016.83
2022-12-06T01:21:00.550Z,1016.84
2022-12-06T01:26:01.723Z,1016.88
2022-12-06T01:31:02.983Z,1016.91
2022-12-06T01:36:04.167Z,1016.93
2022-12-06T01:41:05.321Z,1016.87
2022-12-06T01:46:06.525Z,1016.82
2022-12-06T01:51:07.630Z,1016.72
2022-12-06T01:56:08.796Z,1016.70
2022-12-06T02:01:09.967Z,1016.73
2022-12-06T02:06:11.150Z,1016.70
2022-12-06T02:11:12.235Z,1016.69
2022-12-06T02:16:13.430Z,1016.76
2022-12-06T02:21:14.642Z,1016.73
2022-12-06T02:26:15.805Z,1016.69
2022-12-06T02:31:17.066Z,1016.59
2022-12-06T02:36:18.312Z,1016.56
2022-12-06T02:41:19.520Z,1016.56
2022-12-06T02:46:20.791Z,1016.57
2022-12-06T02:51:21.963Z,1016.55
2022-12-06T02:56:23.162Z,1016.56
2022-12-06T03:01:24.411Z,1016.64
2022-12-06T03:06:25.622Z,1016.62
2022-12-06T03:11:26.799Z,1016.60
2022-12-06T03:16:27.926Z,1016.60
2022-12-06T03:21:30.101Z,1016.57
2022-12-06T03:26:29.247Z,1016.52
2022-12-06T03:31:30.581Z,1016.48
2022-12-06T03:36:31.785Z,1016.41
2022-12-06T03:41:33.009Z,1016.35
2022-12-06T03:46:34.283Z,1016.39
2022-12-06T03:51:35.476Z,1016.34
2022-12-06T03:56:36.677Z,1016.29
2022-12-06T04:01:37.913Z,1016.30
2022-12-06T04:06:39.093Z,1016.24
2022-12-06T04:11:40.325Z,1016.18
2022-12-06T04:16:41.544Z,1016.17
2022-12-06T04:21:42.825Z,1016.15
2022-12-06T04:26:44.108Z,1016.15
2022-12-06T04:31:45.414Z,1016.17
2022-12-06T04:36:46.628Z,1016.08
2022-12-06T04:41:47.786Z,1016.02
2022-12-06T04:46:49.022Z,1015.97
2022-12-06T04:51:50.202Z,1015.98
2022-12-06T04:56:51.397Z,1015.95
2022-12-06T05:01:53.549Z,1015.97
2022-12-06T05:06:52.688Z,1016.10
2022-12-06T05:11:53.862Z,1016.09
2022-12-06T05:16:55.369Z,1016.07
2022-12-06T05:21:54.558Z,1016.03
2022-12-06T05:26:55.689Z,1015.98
2022-12-06T05:31:56.936Z,1016.03
2022-12-06T05:36:58.130Z,1015.95
2022-12-06T05:41:59.331Z,1015.90
2022-12-06T05:47:00.482Z,1015.89
2022-12-06T05:52:04.241Z,1015.93
2022-12-06T05:57:01.573Z,1015.88
2022-12-06T06:02:02.880Z,1015.87
2022-12-06T06:07:04.150Z,1015.88
2022-12-06T06:12:09.526Z,1015.81
2022-12-06T06:17:05.395Z,1015.75
2022-12-06T06:22:06.546Z,1015.68
2022-12-06T06:27:07.730Z,1015.73
2022-12-06T06:32:08.894Z,1015.67
2022-12-06T06:37:10.141Z,1015.63
2022-12-06T06:42:11.321Z,1015.60
2022-12-06T06:47:12.476Z,1015.63
2022-12-06T06:52:13.643Z,1015.56
2022-12-06T06:57:17.887Z,1015.47
2022-12-06T07:02:15.404Z,1015.46
2022-12-06T07:07:21.056Z,1015.51
2022-12-06T07:12:15.564Z,1015.49
2022-12-06T07:17:16.756Z,1015.51
2022-12-06T07:22:17.922Z,1015.44
2022-12-06T07:27:19.062Z,1015.42
2022-12-06T07:32:20.208Z,1015.49
2022-12-06T07:37:22.359Z,1015.44
2022-12-06T07:42:22.502Z,1015.42
2022-12-06T07:47:23.646Z,1015.40
2022-12-06T07:52:22.751Z,1015.37
2022-12-06T07:57:23.877Z,1015.44
2022-12-06T08:02:25.237Z,1015.35
2022-12-06T08:07:26.387Z,1015.34
2022-12-06T08:12:27.547Z,1015.31
2022-12-06T08:17:27.702Z,1015.21
2022-12-06T08:22:28.831Z,1015.28
2022-12-06T08:27:29.948Z,1015.27
2022-12-06T08:32:30.098Z,1015.19
2022-12-06T08:37:31.232Z,1015.17
2022-12-06T08:42:32.362Z,1015.20
2022-12-06T08:47:34.495Z,1015.24
2022-12-06T08:52:34.616Z,1015.30
2022-12-06T08:57:34.764Z,1015.25
2022-12-06T09:02:33.991Z,1015.26
2022-12-06T09:07:37.228Z,1015.38
2022-12-06T09:12:37.420Z,1015.41
2022-12-06T09:17:38.524Z,1015.35
2022-12-06T09:22:38.637Z,1015.30
2022-12-06T09:27:38.762Z,1015.27
2022-12-06T09:32:37.905Z,1015.25
2022-12-06T09:37:39.141Z,1015.16
2022-12-06T09:42:40.222Z,1015.21
2022-12-06T09:47:41.342Z,1015.11
2022-12-06T09:52:42.491Z,1015.10
2022-12-06T09:57:44.611Z,1014.98
2022-12-06T10:02:43.837Z,1014.97
2022-12-06T10:07:45.118Z,1014.92
2022-12-06T10:12:46.582Z,1014.90
2022-12-06T10:17:52.276Z,1014.83
2022-12-06T10:22:47.791Z,1014.78
2022-12-06T10:27:48.959Z,1014.70
2022-12-06T10:32:50.148Z,1014.66
2022-12-06T10:37:53.299Z,1014.62
2022-12-06T10:42:52.392Z,1014.59
2022-12-06T10:47:54.530Z,1014.57
2022-12-06T10:52:57.299Z,1014.51
2022-12-06T10:57:53.621Z,1014.45
2022-12-06T11:02:54.834Z,1014.52
2022-12-06T11:07:55.994Z,1014.51
2022-12-06T11:12:57.076Z,1014.51
2022-12-06T11:18:02.443Z,1014.56
2022-12-06T11:22:58.962Z,1014.50
2022-12-06T11:27:59.121Z,1014.47
2022-12-06T11:32:59.201Z,1014.47
2022-12-06T11:38:00.455Z,1014.50
2022-12-06T11:42:59.566Z,1014.45
2022-12-06T11:48:00.737Z,1014.36
2022-12-06T11:53:02.908Z,1014.25
2022-12-06T11:58:02.022Z,1014.19
2022-12-06T12:03:04.227Z,1014.17
2022-12-06T12:08:03.465Z,1014.16
2022-12-06T12:13:04.553Z,1014.04
2022-12-06T12:18:06.741Z,1014.07
2022-12-06T12:23:05.941Z,1013.85
2022-12-06T12:28:07.141Z,1013.87
2022-12-06T12:33:09.279Z,1013.86
2022-12-06T12:38:09.498Z,1013.87
2022-12-06T12:43:08.713Z,1013.83
2022-12-06T12:48:10.846Z,1013.81
2022-12-06T12:53:10.037Z,1013.80
2022-12-06T12:58:13.317Z,1013.84
2022-12-06T13:03:34.797Z,1013.80
2022-12-06T13:08:12.502Z,1013.77
2022-12-06T13:13:13.652Z,1013.83
2022-12-06T13:18:15.768Z,1013.84
2022-12-06T13:23:14.872Z,1013.84
2022-12-06T13:28:16.130Z,1013.82
2022-12-06T13:33:20.927Z,1013.83
2022-12-06T13:38:24.261Z,1013.80
2022-12-06T13:43:19.712Z,1013.79
2022-12-06T13:48:18.908Z,1013.82
2022-12-06T13:53:21.059Z,1013.85
2022-12-06T13:58:20.179Z,1013.80
2022-12-06T14:03:21.419Z,1013.84
2022-12-06T14:08:23.596Z,1013.81
2022-12-06T14:13:24.733Z,1013.80
2022-12-06T14:18:23.862Z,1013.78
2022-12-06T14:23:25.963Z,1013.81
2022-12-06T14:28:25.275Z,1013.82
2022-12-06T14:33:26.415Z,1013.85
2022-12-06T14:38:27.541Z,1013.85
2022-12-06T14:43:28.807Z,1013.82
2022-12-06T14:48:30.897Z,1013.95
2022-12-06T14:53:31.058Z,1013.96
2022-12-06T14:58:30.194Z,1013.97
2022-12-06T15:03:31.505Z,1013.93
2022-12-06T15:08:33.704Z,1013.92
2022-12-06T15:13:32.866Z,1014.04
2022-12-06T15:18:35.022Z,1014.08
2022-12-06T15:23:34.128Z,1014.09
2022-12-06T15:28:35.288Z,1014.12
2022-12-06T15:33:37.374Z,1014.13
2022-12-06T15:38:36.474Z,1014.12
2022-12-06T15:43:38.587Z,1014.12
2022-12-06T15:48:39.738Z,1014.16
2022-12-06T15:53:38.878Z,1014.16
2022-12-06T15:58:41.170Z,1014.18
2022-12-06T16:03:40.331Z,1014.24
2022-12-06T16:08:41.677Z,1014.28
2022-12-06T16:13:43.761Z,1014.28
2022-12-06T16:18:43.035Z,1014.34
2022-12-06T16:24:12.053Z,1014.36
2022-12-06T16:28:44.252Z,1014.37
2022-12-06T16:33:46.386Z,1014.34
2022-12-06T16:38:47.530Z,1014.34
2022-12-06T16:43:46.850Z,1014.35
2022-12-06T16:48:55.319Z,1014.37
2022-12-06T16:53:49.240Z,1014.39
2022-12-06T16:58:50.557Z,1014.32
2022-12-06T17:03:51.855Z,1014.31
2022-12-06T17:08:54.254Z,1014.32
2022-12-06T17:13:53.687Z,1014.35
2022-12-06T17:18:54.960Z,1014.42
2022-12-06T17:23:57.290Z,1014.41
2022-12-06T17:28:56.545Z,1014.38
2022-12-06T17:33:57.864Z,1014.42
2022-12-06T17:39:00.479Z,1014.41
2022-12-06T17:44:00.008Z,1014.45
2022-12-06T17:48:59.399Z,1014.54
2022-12-06T17:54:08.864Z,1014.46
2022-12-06T17:59:00.873Z,1014.44
2022-12-06T18:04:00.865Z,1014.42
2022-12-06T18:09:00.375Z,1014.48
2022-12-06T18:13:59.536Z,1014.43
2022-12-06T18:19:07.187Z,1014.44
2022-12-06T18:24:20.780Z,1014.45
2022-12-06T18:29:04.285Z,1014.30
2022-12-06T18:34:04.649Z,1014.32
2022-12-06T18:39:03.874Z,1014.34
2022-12-06T18:44:04.991Z,1014.30
2022-12-06T18:49:06.497Z,1014.29
2022-12-06T18:54:06.076Z,1014.30
2022-12-06T18:59:06.571Z,1014.32
2022-12-06T19:04:05.052Z,1014.32
2022-12-06T19:09:07.591Z,1014.31
2022-12-06T19:14:08.051Z,1014.21
2022-12-06T19:19:12.798Z,1014.21
2022-12-06T19:24:08.862Z,1014.24
2022-12-06T19:29:08.282Z,1014.28
2022-12-06T19:34:09.578Z,1014.32
2022-12-06T19:39:11.726Z,1014.37
2022-12-06T19:44:12.129Z,1014.41
2022-12-06T19:49:12.610Z,1014.43
2022-12-06T19:54:12.609Z,1014.54
2022-12-06T19:59:12.188Z,1014.58
2022-12-06T20:04:14.168Z,1014.58
2022-12-06T20:09:11.673Z,1014.56
2022-12-06T20:14:11.126Z,1014.65
2022-12-06T20:19:12.575Z,1014.60
2022-12-06T20:24:14.087Z,1014.66
2022-12-06T20:29:13.692Z,1014.70
2022-12-06T20:34:15.050Z,1014.74
2022-12-06T20:39:12.960Z,1014.86
2022-12-06T20:44:15.483Z,1014.90
2022-12-06T20:49:15.022Z,1014.83
2022-12-06T20:54:16.633Z,1014.76
2022-12-06T20:59:14.769Z,1014.76
2022-12-06T21:04:14.019Z,1014.79
2022-12-06T21:09:15.201Z,1014.72
2022-12-06T21:14:16.368Z,1014.69
2022-12-06T21:19:17.542Z,1014.66
2022-12-06T21:24:19.748Z,1014.71
2022-12-06T21:29:17.927Z,1014.63
2022-12-06T21:34:20.078Z,1014.60
2022-12-06T21:39:20.251Z,1014.59
2022-12-06T21:44:19.392Z,1014.67
2022-12-06T21:49:20.532Z,1014.70
2022-12-06T21:54:21.649Z,1014.72
2022-12-06T21:59:22.811Z,1014.70
2022-12-06T22:04:23.950Z,1014.70
2022-12-06T22:09:25.104Z,1014.68
2022-12-06T22:14:26.252Z,1014.68
2022-12-06T22:19:27.373Z,1014.81
2022-12-06T22:24:28.548Z,1014.80
2022-12-06T22:29:29.650Z,1014.77
2022-12-06T22:34:30.787Z,1014.84
2022-12-06T22:39:32.916Z,1014.90
2022-12-06T22:44:32.120Z,1014.82
2022-12-06T22:49:33.261Z,1014.87
2022-12-06T22:54:34.379Z,1014.84
2022-12-06T22:59:35.499Z,1014.78
2022-12-06T23:04:37.627Z,1014.83
2022-12-06T23:09:37.451Z,1014.80
2022-12-06T23:14:36.594Z,1014.84
2022-12-06T23:19:37.746Z,1014.79
2022-12-06T23:24:38.884Z,1014.80
2022-12-06T23:29:40.004Z,1014.87
2022-12-06T23:34:41.184Z,1014.89
2022-12-06T23:39:42.348Z,1014.86
2022-12-06T23:44:47.420Z,1014.86
2022-12-06T23:49:44.575Z,1014.85
2022-12-06T23:54:45.710Z,1014.82
2022-12-06T23:59:46.795Z,1014.86
